createdAt,value
2022-08-19T00:00:43.090Z,24.37
2022-08-19T00:03:09.482Z,24.35
2022-08-19T00:05:36.301Z,24.34
2022-08-19T00:08:03.027Z,24.32
2022-08-19T00:10:29.556Z,24.33
2022-08-19T00:12:56.059Z,24.29
2022-08-19T00:15:22.778Z,24.27
2022-08-19T00:17:49.215Z,24.26
2022-08-19T00:20:15.864Z,24.21
2022-08-19T00:22:42.646Z,24.12
2022-08-19T00:25:09.573Z,24.17
2022-08-19T00:27:36.402Z,24.06
2022-08-19T00:30:02.856Z,24.00
2022-08-19T00:32:29.380Z,23.99
2022-08-19T00:34:57.612Z,23.99
2022-08-19T00:37:24.469Z,23.93
2022-08-19T00:39:50.929Z,23.94
2022-08-19T00:42:17.414Z,23.95
2022-08-19T00:44:43.935Z,23.83
2022-08-19T00:47:14.073Z,23.47
2022-08-19T00:49:40.800Z,23.44
2022-08-19T00:52:07.472Z,23.57
2022-08-19T00:54:34.070Z,23.65
2022-08-19T00:57:00.530Z,23.54
2022-08-19T01:00:01.924Z,23.22
2022-08-19T01:02:13.807Z,23.38
2022-08-19T01:04:40.788Z,23.39
2022-08-19T01:07:07.279Z,23.48
2022-08-19T01:09:34.259Z,23.45
2022-08-19T01:12:01.111Z,23.35
2022-08-19T01:14:27.534Z,23.36
2022-08-19T01:16:53.936Z,23.46
2022-08-19T01:19:20.682Z,23.46
2022-08-19T01:21:47.184Z,23.34
2022-08-19T01:24:13.835Z,22.94
2022-08-19T01:26:40.382Z,23.02
2022-08-19T01:29:08.577Z,23.02
2022-08-19T01:31:36.407Z,23.15
2022-08-19T01:34:02.903Z,22.88
2022-08-19T01:36:29.845Z,22.94
2022-08-19T01:38:56.284Z,22.56
2022-08-19T01:41:22.898Z,22.82
2022-08-19T01:44:13.608Z,22.97
2022-08-19T01:46:35.916Z,22.97
2022-08-19T01:49:02.345Z,23.06
2022-08-19T01:51:28.880Z,23.09
2022-08-19T01:54:05.082Z,22.78
2022-08-19T01:56:31.554Z,23.00
2022-08-19T01:58:57.934Z,23.11
2022-08-19T02:01:24.593Z,23.15
2022-08-19T02:03:57.671Z,23.18
2022-08-19T02:06:27.071Z,23.14
2022-08-19T02:08:54.250Z,23.17
2022-08-19T02:11:23.889Z,23.18
2022-08-19T02:13:50.645Z,23.20
2022-08-19T02:16:17.098Z,23.26
2022-08-19T02:18:43.532Z,23.15
2022-08-19T02:21:10.296Z,23.22
2022-08-19T02:23:36.730Z,23.25
2022-08-19T02:26:03.244Z,23.08
2022-08-19T02:28:29.754Z,22.95
2022-08-19T02:30:56.446Z,22.67
2022-08-19T02:33:23.548Z,22.10
2022-08-19T02:35:50.366Z,22.37
2022-08-19T02:38:16.880Z,21.58
2022-08-19T02:40:43.272Z,21.87
2022-08-19T02:43:10.288Z,21.42
2022-08-19T02:45:36.704Z,21.44
2022-08-19T02:48:12.768Z,21.71
2022-08-19T02:50:53.045Z,21.23
2022-08-19T02:53:20.117Z,21.58
2022-08-19T02:55:46.580Z,21.59
2022-08-19T02:58:13.292Z,21.47
2022-08-19T03:00:39.692Z,21.65
2022-08-19T03:03:08.638Z,21.14
2022-08-19T03:05:47.060Z,21.13
2022-08-19T03:08:21.807Z,21.80
2022-08-19T03:10:48.338Z,22.35
2022-08-19T03:13:14.987Z,22.31
2022-08-19T03:15:41.590Z,22.21
2022-08-19T03:18:08.169Z,22.26
2022-08-19T03:20:35.062Z,22.41
2022-08-19T03:23:01.507Z,22.26
2022-08-19T03:25:27.970Z,22.28
2022-08-19T03:27:54.446Z,22.30
2022-08-19T03:30:23.168Z,22.17
2022-08-19T03:32:57.120Z,22.34
2022-08-19T03:35:23.870Z,22.40
2022-08-19T03:37:50.551Z,22.31
2022-08-19T03:40:17.165Z,21.76
2022-08-19T03:42:48.732Z,22.16
2022-08-19T03:45:16.176Z,22.43
2022-08-19T03:47:42.782Z,22.57
2022-08-19T03:50:09.229Z,22.65
2022-08-19T03:52:35.862Z,22.71
2022-08-19T03:55:02.297Z,22.76
2022-08-19T03:57:31.923Z,22.80
2022-08-19T04:00:13.256Z,22.82
2022-08-19T04:02:41.394Z,22.83
2022-08-19T04:05:07.883Z,22.85
2022-08-19T04:07:34.298Z,22.85
2022-08-19T04:10:00.761Z,22.85
2022-08-19T04:12:27.440Z,22.87
2022-08-19T04:14:54.114Z,22.87
2022-08-19T04:17:20.968Z,22.89
2022-08-19T04:19:47.530Z,22.93
2022-08-19T04:22:14.217Z,22.90
2022-08-19T04:24:40.640Z,22.90
2022-08-19T04:27:07.145Z,22.88
2022-08-19T04:29:33.744Z,22.92
2022-08-19T04:32:00.514Z,22.95
2022-08-19T04:34:36.065Z,23.00
2022-08-19T04:37:22.456Z,23.00
2022-08-19T04:39:49.042Z,23.01
2022-08-19T04:42:15.555Z,23.01
2022-08-19T04:44:46.355Z,23.05
2022-08-19T04:47:12.988Z,23.08
2022-08-19T04:49:41.743Z,23.12
2022-08-19T04:52:08.122Z,22.84
2022-08-19T04:54:38.325Z,22.72
2022-08-19T04:57:05.644Z,22.41
2022-08-19T04:59:32.049Z,22.22
2022-08-19T05:01:58.870Z,22.24
2022-08-19T05:04:25.246Z,22.54
2022-08-19T05:06:51.698Z,22.90
2022-08-19T05:09:18.235Z,23.07
2022-08-19T05:11:44.689Z,23.21
2022-08-19T05:14:11.053Z,23.04
2022-08-19T05:16:37.591Z,23.02
2022-08-19T05:19:03.975Z,22.73
2022-08-19T05:21:30.353Z,23.07
2022-08-19T05:23:56.922Z,22.77
2022-08-19T05:26:23.298Z,22.86
2022-08-19T05:28:53.048Z,22.12
2022-08-19T05:31:21.300Z,22.00
2022-08-19T05:33:47.701Z,21.73
2022-08-19T05:36:14.136Z,21.03
2022-08-19T05:38:40.753Z,21.50
2022-08-19T05:41:07.174Z,21.15
2022-08-19T05:43:33.533Z,21.23
2022-08-19T05:45:59.987Z,21.79
2022-08-19T05:48:26.381Z,21.34
2022-08-19T05:50:52.766Z,20.54
2022-08-19T05:53:19.292Z,20.98
2022-08-19T05:55:45.697Z,20.10
2022-08-19T05:58:12.107Z,20.47
2022-08-19T06:00:38.506Z,21.04
2022-08-19T06:03:12.470Z,20.73
2022-08-19T06:05:44.766Z,20.91
2022-08-19T06:08:18.247Z,20.57
2022-08-19T06:10:44.947Z,20.63
2022-08-19T06:13:11.363Z,20.61
2022-08-19T06:15:37.812Z,21.01
2022-08-19T06:18:04.400Z,21.28
2022-08-19T06:20:54.586Z,21.16
2022-08-19T06:23:17.335Z,21.25
2022-08-19T06:25:43.970Z,20.95
2022-08-19T06:28:15.093Z,20.71
2022-08-19T06:30:42.225Z,20.92
2022-08-19T06:33:08.658Z,20.53
2022-08-19T06:35:35.069Z,21.21
2022-08-19T06:38:01.972Z,21.68
2022-08-19T06:40:28.389Z,21.21
2022-08-19T06:42:55.553Z,21.03
2022-08-19T06:45:24.548Z,21.60
2022-08-19T06:47:51.896Z,21.42
2022-08-19T06:50:18.508Z,21.78
2022-08-19T06:52:45.393Z,21.21
2022-08-19T06:55:11.857Z,21.84
2022-08-19T06:57:38.291Z,21.88
2022-08-19T07:00:04.812Z,22.18
2022-08-19T07:02:31.312Z,22.60
2022-08-19T07:04:57.837Z,21.56
2022-08-19T07:07:24.641Z,22.29
2022-08-19T07:09:57.985Z,22.40
2022-08-19T07:12:26.659Z,21.86
2022-08-19T07:14:53.121Z,22.33
2022-08-19T07:17:21.090Z,22.12
2022-08-19T07:19:48.410Z,22.41
2022-08-19T07:22:15.349Z,22.58
2022-08-19T07:24:51.425Z,22.46
2022-08-19T07:27:18.422Z,22.75
2022-08-19T07:29:57.326Z,23.15
2022-08-19T07:32:24.418Z,23.27
2022-08-19T07:34:51.899Z,23.35
2022-08-19T07:37:18.353Z,22.69
2022-08-19T07:39:45.191Z,22.58
2022-08-19T07:42:13.340Z,23.10
2022-08-19T07:47:07.450Z,23.22
2022-08-19T07:49:53.826Z,23.72
2022-08-19T07:52:23.205Z,23.20
2022-08-19T07:54:49.632Z,23.22
2022-08-19T07:57:16.036Z,23.11
2022-08-19T07:59:42.631Z,22.99
2022-08-19T08:02:09.079Z,23.62
2022-08-19T08:04:35.505Z,23.73
2022-08-19T08:07:02.345Z,24.00
2022-08-19T08:09:28.749Z,23.51
2022-08-19T08:11:55.154Z,24.24
2022-08-19T08:14:29.601Z,23.87
2022-08-19T08:17:01.557Z,24.13
2022-08-19T08:19:28.467Z,24.43
2022-08-19T08:21:54.883Z,24.43
2022-08-19T08:24:21.300Z,24.10
2022-08-19T08:26:52.237Z,23.84
2022-08-19T08:29:24.150Z,23.38
2022-08-19T08:31:58.459Z,23.45
2022-08-19T08:34:27.603Z,23.48
2022-08-19T08:36:54.359Z,24.23
2022-08-19T08:39:20.730Z,24.60
2022-08-19T08:41:47.167Z,24.17
2022-08-19T08:44:17.199Z,24.35
2022-08-19T08:46:46.506Z,24.63
2022-08-19T08:49:13.339Z,24.86
2022-08-19T08:54:11.068Z,24.62
2022-08-19T08:56:37.800Z,24.36
2022-08-19T08:59:04.245Z,24.82
2022-08-19T09:01:31.026Z,25.00
2022-08-19T09:03:57.673Z,25.09
2022-08-19T09:06:29.517Z,24.88
2022-08-19T09:08:56.747Z,24.60
2022-08-19T09:11:42.078Z,24.33
2022-08-19T09:14:23.543Z,24.71
2022-08-19T09:16:55.908Z,24.91
2022-08-19T09:19:22.569Z,25.11
2022-08-19T09:21:49.029Z,25.35
2022-08-19T09:24:15.647Z,25.60
2022-08-19T09:26:48.517Z,25.70
2022-08-19T09:29:19.982Z,25.59
2022-08-19T09:31:49.120Z,25.58
2022-08-19T09:34:21.106Z,25.80
2022-08-19T09:36:48.437Z,25.80
2022-08-19T09:39:21.991Z,25.82
2022-08-19T09:41:49.012Z,25.96
2022-08-19T09:44:15.978Z,26.13
2022-08-19T09:46:43.460Z,26.09
2022-08-19T09:49:11.248Z,26.21
2022-08-19T09:51:39.867Z,26.10
2022-08-19T09:54:06.354Z,26.17
2022-08-19T09:56:32.792Z,26.25
2022-08-19T09:59:00.719Z,26.53
2022-08-19T10:01:27.310Z,26.34
2022-08-19T10:03:53.937Z,26.37
2022-08-19T10:06:20.323Z,26.19
2022-08-19T10:09:09.013Z,26.42
2022-08-19T10:11:36.366Z,26.58
2022-08-19T10:14:07.620Z,26.63
2022-08-19T10:16:37.131Z,26.54
2022-08-19T10:19:06.414Z,26.46
2022-08-19T10:21:34.374Z,26.37
2022-08-19T10:24:01.184Z,26.41
2022-08-19T10:26:27.812Z,26.38
2022-08-19T10:28:58.026Z,26.33
2022-08-19T10:31:59.934Z,26.31
2022-08-19T10:34:17.568Z,26.35
2022-08-19T10:36:56.094Z,26.26
2022-08-19T10:39:23.680Z,26.32
2022-08-19T10:41:58.521Z,26.43
2022-08-19T10:44:32.350Z,26.29
2022-08-19T10:47:00.505Z,26.11
2022-08-19T10:49:28.448Z,26.04
2022-08-19T10:51:56.119Z,26.04
2022-08-19T10:54:33.190Z,25.98
2022-08-19T10:57:00.179Z,25.82
2022-08-19T10:59:26.991Z,25.75
2022-08-19T11:01:54.461Z,25.66
2022-08-19T11:04:28.854Z,25.79
2022-08-19T11:06:56.517Z,25.81
2022-08-19T11:09:23.431Z,25.88
2022-08-19T11:11:50.540Z,25.86
2022-08-19T11:14:17.356Z,25.88
2022-08-19T11:16:44.247Z,25.83
2022-08-19T11:22:04.707Z,25.76
2022-08-19T11:24:31.381Z,25.79
2022-08-19T11:26:59.299Z,25.51
2022-08-19T11:29:30.950Z,25.30
2022-08-19T11:31:57.674Z,25.28
2022-08-19T11:34:24.375Z,25.27
2022-08-19T11:36:51.042Z,25.42
2022-08-19T11:39:17.571Z,25.70
2022-08-19T11:41:44.318Z,25.93
2022-08-19T11:44:11.140Z,26.09
2022-08-19T11:46:38.043Z,26.27
2022-08-19T11:49:04.622Z,26.44
2022-08-19T11:51:31.320Z,26.40
2022-08-19T11:53:57.904Z,26.41
2022-08-19T11:56:24.447Z,26.43
2022-08-19T11:58:51.354Z,26.55
2022-08-19T12:01:18.246Z,26.85
2022-08-19T12:03:44.679Z,26.84
2022-08-19T12:06:11.811Z,26.92
2022-08-19T12:08:40.641Z,27.10
2022-08-19T12:11:07.401Z,26.99
2022-08-19T12:13:34.747Z,26.88
2022-08-19T12:16:01.194Z,26.85
2022-08-19T12:18:28.292Z,26.90
2022-08-19T12:20:55.247Z,26.90
2022-08-19T12:23:22.033Z,27.03
2022-08-19T12:25:48.811Z,26.80
2022-08-19T12:28:15.470Z,27.02
2022-08-19T12:30:42.084Z,27.17
2022-08-19T12:33:08.664Z,27.31
2022-08-19T12:35:36.520Z,27.43
2022-08-19T12:38:03.140Z,27.61
2022-08-19T12:40:29.929Z,27.67
2022-08-19T12:42:56.918Z,27.44
2022-08-19T12:45:23.327Z,27.35
2022-08-19T12:47:49.965Z,27.46
2022-08-19T12:50:21.557Z,27.22
2022-08-19T12:52:48.093Z,27.21
2022-08-19T12:55:14.539Z,27.20
2022-08-19T12:57:40.970Z,26.89
2022-08-19T13:00:07.741Z,26.73
2022-08-19T13:02:38.840Z,26.67
2022-08-19T13:05:06.416Z,26.74
2022-08-19T13:07:32.843Z,26.70
2022-08-19T13:10:00.113Z,26.79
2022-08-19T13:12:27.099Z,26.68
2022-08-19T13:14:53.538Z,26.57
2022-08-19T13:17:20.058Z,26.63
2022-08-19T13:19:47.508Z,26.46
2022-08-19T13:22:15.124Z,26.30
2022-08-19T13:24:46.402Z,26.44
2022-08-19T13:27:14.193Z,26.55
2022-08-19T13:29:40.629Z,26.49
2022-08-19T13:32:09.828Z,26.42
2022-08-19T13:34:39.945Z,26.17
2022-08-19T13:37:06.537Z,26.29
2022-08-19T13:39:33.228Z,26.26
2022-08-19T13:41:59.960Z,26.43
2022-08-19T13:44:26.569Z,26.09
2022-08-19T13:46:54.087Z,26.11
2022-08-19T13:49:22.043Z,26.16
2022-08-19T13:51:48.533Z,26.10
2022-08-19T13:54:15.137Z,26.10
2022-08-19T13:56:42.108Z,26.15
2022-08-19T13:59:08.671Z,25.97
2022-08-19T14:01:36.616Z,26.17
2022-08-19T14:04:03.641Z,26.21
2022-08-19T14:06:30.698Z,26.14
2022-08-19T14:08:57.132Z,26.04
2022-08-19T14:11:23.787Z,26.06
2022-08-19T14:13:50.331Z,26.13
2022-08-19T14:16:16.812Z,25.92
2022-08-19T14:18:44.264Z,26.20
2022-08-19T14:21:10.967Z,26.26
2022-08-19T14:23:37.817Z,26.36
2022-08-19T14:26:04.944Z,26.44
2022-08-19T14:28:31.659Z,26.71
2022-08-19T14:30:58.142Z,26.84
2022-08-19T14:33:28.572Z,27.00
2022-08-19T14:35:59.810Z,27.09
2022-08-19T14:38:31.125Z,27.15
2022-08-19T14:40:58.848Z,27.04
2022-08-19T14:43:25.311Z,26.87
2022-08-19T14:45:52.060Z,26.98
2022-08-19T14:48:20.330Z,26.90
2022-08-19T14:50:47.013Z,26.94
2022-08-19T14:53:14.420Z,27.01
2022-08-19T14:55:40.978Z,26.94
2022-08-19T14:58:08.214Z,27.02
2022-08-19T15:00:41.252Z,27.02
2022-08-19T15:03:07.859Z,27.04
2022-08-19T15:05:34.400Z,27.06
2022-08-19T15:08:01.435Z,27.05
2022-08-19T15:10:27.882Z,26.85
2022-08-19T15:12:54.522Z,26.90
2022-08-19T15:15:21.359Z,26.94
2022-08-19T15:17:47.855Z,26.93
2022-08-19T15:20:14.289Z,27.01
2022-08-19T15:22:41.007Z,27.10
2022-08-19T15:25:07.893Z,27.24
2022-08-19T15:27:35.003Z,27.41
2022-08-19T15:30:01.904Z,27.40
2022-08-19T15:32:28.423Z,27.33
2022-08-19T15:34:55.775Z,27.28
2022-08-19T15:37:22.643Z,27.23
2022-08-19T15:39:50.179Z,27.07
2022-08-19T15:42:29.666Z,27.07
2022-08-19T15:44:58.286Z,27.10
2022-08-19T15:47:35.171Z,27.06
2022-08-19T15:50:02.250Z,27.03
2022-08-19T15:52:28.725Z,27.13
2022-08-19T15:54:55.226Z,27.14
2022-08-19T15:57:22.242Z,27.23
2022-08-19T15:59:48.668Z,27.16
2022-08-19T16:02:16.759Z,27.15
2022-08-19T16:04:43.794Z,27.17
2022-08-19T16:07:10.165Z,27.24
2022-08-19T16:09:36.559Z,27.32
2022-08-19T16:12:03.409Z,27.32
2022-08-19T16:14:30.978Z,27.41
2022-08-19T16:16:57.469Z,27.43
2022-08-19T16:19:23.963Z,27.43
2022-08-19T16:21:50.509Z,27.36
2022-08-19T16:24:16.941Z,27.28
2022-08-19T16:26:43.584Z,27.28
2022-08-19T16:29:12.995Z,27.29
2022-08-19T16:31:39.935Z,27.31
2022-08-19T16:34:06.932Z,27.23
2022-08-19T16:36:33.756Z,27.10
2022-08-19T16:39:00.183Z,27.09
2022-08-19T16:41:31.826Z,27.01
2022-08-19T16:43:58.221Z,27.02
2022-08-19T16:46:27.038Z,27.03
2022-08-19T16:48:54.647Z,26.92
2022-08-19T16:51:21.643Z,26.95
2022-08-19T16:53:48.185Z,26.83
2022-08-19T16:56:14.791Z,26.73
2022-08-19T16:58:41.677Z,26.74
2022-08-19T17:01:09.287Z,26.70
2022-08-19T17:03:36.794Z,26.64
2022-08-19T17:06:03.539Z,26.66
2022-08-19T17:08:29.968Z,26.60
2022-08-19T17:11:17.297Z,26.64
2022-08-19T17:13:43.155Z,26.52
2022-08-19T17:16:09.742Z,26.48
2022-08-19T17:18:36.449Z,26.44
2022-08-19T17:21:02.912Z,26.43
2022-08-19T17:23:42.438Z,26.34
2022-08-19T17:26:09.798Z,26.36
2022-08-19T17:28:43.887Z,26.32
2022-08-19T17:31:11.457Z,26.28
2022-08-19T17:33:41.521Z,26.28
2022-08-19T17:36:08.306Z,26.25
2022-08-19T17:38:34.907Z,26.20
2022-08-19T17:41:01.302Z,26.11
2022-08-19T17:43:32.368Z,26.13
2022-08-19T17:46:00.743Z,26.14
2022-08-19T17:48:27.422Z,26.15
2022-08-19T17:50:54.031Z,26.14
2022-08-19T17:53:20.970Z,26.08
2022-08-19T17:55:49.524Z,26.07
2022-08-19T17:58:16.445Z,26.01
2022-08-19T18:00:53.907Z,26.01
2022-08-19T18:03:20.988Z,25.95
2022-08-19T18:05:50.184Z,25.86
2022-08-19T18:08:16.603Z,25.80
2022-08-19T18:10:43.355Z,25.73
2022-08-19T18:13:17.405Z,25.80
2022-08-19T18:15:44.674Z,25.89
2022-08-19T18:18:15.024Z,25.81
2022-08-19T18:20:42.140Z,25.86
2022-08-19T18:23:45.503Z,25.90
2022-08-19T18:25:55.079Z,25.93
2022-08-19T18:28:21.559Z,25.84
2022-08-19T18:30:47.975Z,25.86
2022-08-19T18:33:14.365Z,25.88
2022-08-19T18:35:41.112Z,25.91
2022-08-19T18:38:07.622Z,25.97
2022-08-19T18:40:34.039Z,25.93
2022-08-19T18:43:00.628Z,25.94
2022-08-19T18:45:27.019Z,25.97
2022-08-19T18:47:53.489Z,25.86
2022-08-19T18:50:19.973Z,25.11
2022-08-19T18:52:46.356Z,24.72
2022-08-19T18:55:12.835Z,25.04
2022-08-19T18:57:39.523Z,25.31
2022-08-19T19:00:05.963Z,25.52
2022-08-19T19:02:32.408Z,25.62
2022-08-19T19:04:59.829Z,25.62
2022-08-19T19:07:28.232Z,25.68
2022-08-19T19:09:54.806Z,25.69
2022-08-19T19:12:25.752Z,25.71
2022-08-19T19:14:52.202Z,25.72
2022-08-19T19:17:18.840Z,25.66
2022-08-19T19:19:45.385Z,25.60
2022-08-19T19:22:12.529Z,25.60
2022-08-19T19:24:39.157Z,25.65
2022-08-19T19:27:05.748Z,25.65
2022-08-19T19:29:32.409Z,25.51
2022-08-19T19:31:58.853Z,25.43
2022-08-19T19:34:29.925Z,25.48
2022-08-19T19:36:56.918Z,25.46
2022-08-19T19:39:34.036Z,25.44
2022-08-19T19:42:12.547Z,25.41
2022-08-19T19:44:47.206Z,25.43
2022-08-19T19:47:13.844Z,25.40
2022-08-19T19:49:57.972Z,25.38
2022-08-19T19:52:30.600Z,24.91
2022-08-19T19:54:57.076Z,24.22
2022-08-19T19:57:23.544Z,24.18
2022-08-19T19:59:51.617Z,24.79
2022-08-19T20:02:18.320Z,24.97
2022-08-19T20:04:44.740Z,25.14
2022-08-19T20:07:16.842Z,25.28
2022-08-19T20:09:59.253Z,25.43
2022-08-19T20:12:27.038Z,25.37
2022-08-19T20:14:53.375Z,25.21
2022-08-19T20:17:19.884Z,24.70
2022-08-19T20:19:46.467Z,24.32
2022-08-19T20:22:12.841Z,24.48
2022-08-19T20:24:39.218Z,23.97
2022-08-19T20:27:05.687Z,24.11
2022-08-19T20:29:39.381Z,24.36
2022-08-19T20:32:07.835Z,24.27
2022-08-19T20:34:34.211Z,24.27
2022-08-19T20:37:00.586Z,24.01
2022-08-19T20:39:27.036Z,22.96
2022-08-19T20:41:53.471Z,23.02
2022-08-19T20:44:19.904Z,23.50
2022-08-19T20:46:55.562Z,23.86
2022-08-19T20:49:22.622Z,24.10
2022-08-19T20:51:53.443Z,24.14
2022-08-19T20:54:19.854Z,24.25
2022-08-19T20:56:46.200Z,24.34
2022-08-19T20:59:16.045Z,24.38
2022-08-19T21:01:42.495Z,24.36
2022-08-19T21:04:08.886Z,24.32
2022-08-19T21:06:35.444Z,24.32
2022-08-19T21:09:01.827Z,24.27
2022-08-19T21:11:28.233Z,24.11
2022-08-19T21:13:54.688Z,24.04
2022-08-19T21:16:21.076Z,24.18
2022-08-19T21:18:47.515Z,23.99
2022-08-19T21:21:14.117Z,24.11
2022-08-19T21:23:40.502Z,24.24
2022-08-19T21:26:06.874Z,24.31
2022-08-19T21:28:36.497Z,23.81
2022-08-19T21:31:03.386Z,23.60
2022-08-19T21:33:31.763Z,23.67
2022-08-19T21:35:58.723Z,23.81
2022-08-19T21:38:25.149Z,23.83
2022-08-19T21:40:51.916Z,23.77
2022-08-19T21:43:18.758Z,23.66
2022-08-19T21:45:45.166Z,23.29
2022-08-19T21:48:11.634Z,23.06
2022-08-19T21:50:38.427Z,21.79
2022-08-19T21:53:05.087Z,22.23
2022-08-19T21:55:31.551Z,22.37
2022-08-19T21:57:58.487Z,22.74
2022-08-19T22:00:24.998Z,22.00
2022-08-19T22:02:51.432Z,21.44
2022-08-19T22:05:18.194Z,20.26
2022-08-19T22:07:44.795Z,20.46
2022-08-19T22:10:11.254Z,21.14
2022-08-19T22:12:38.019Z,20.53
2022-08-19T22:15:04.570Z,20.18
2022-08-19T22:17:31.082Z,21.06
2022-08-19T22:19:57.740Z,20.94
2022-08-19T22:22:24.247Z,20.71
2022-08-19T22:24:50.627Z,20.16
2022-08-19T22:27:17.103Z,20.24
2022-08-19T22:29:43.617Z,20.38
2022-08-19T22:32:26.658Z,19.74
2022-08-19T22:34:54.866Z,20.01
2022-08-19T22:37:21.308Z,19.77
2022-08-19T22:39:47.752Z,20.45
2022-08-19T22:42:14.610Z,19.88
2022-08-19T22:44:40.979Z,20.09
2022-08-19T22:47:07.362Z,19.55
2022-08-19T22:49:33.905Z,19.81
2022-08-19T22:52:00.481Z,19.33
2022-08-19T22:54:29.559Z,19.18
2022-08-19T22:56:56.423Z,19.65
2022-08-19T22:59:22.854Z,19.39
2022-08-19T23:01:49.247Z,19.86
2022-08-19T23:04:15.719Z,19.78
2022-08-19T23:06:42.482Z,19.70
2022-08-19T23:09:08.951Z,19.66
2022-08-19T23:11:38.223Z,20.29
2022-08-19T23:14:08.726Z,20.44
2022-08-19T23:16:35.569Z,20.39
2022-08-19T23:19:02.845Z,20.27
2022-08-19T23:21:29.277Z,20.14
2022-08-19T23:23:55.693Z,20.44
2022-08-19T23:26:22.253Z,20.65
2022-08-19T23:28:48.716Z,20.09
2022-08-19T23:31:15.103Z,20.14
2022-08-19T23:33:51.430Z,20.05
2022-08-19T23:36:18.144Z,20.02
2022-08-19T23:38:44.795Z,19.96
2022-08-19T23:41:11.200Z,19.64
2022-08-19T23:43:37.581Z,18.93
2022-08-19T23:46:10.439Z,19.44
2022-08-19T23:48:37.573Z,19.68
2022-08-19T23:51:03.989Z,19.13
2022-08-19T23:53:35.683Z,19.48
2022-08-19T23:56:02.106Z,19.36
2022-08-19T23:58:30.146Z,19.75
